Time;durP1;ratioP1;P1;durP2;ratioP2;P2;SDS_P1;SDS_P2;PMS_P1;PMS_P2;Temp;Humidity;BMP_temperature;BMP_pressure;BME280_temperature;BME280_humidity;BME280_pressure;Samples;Min_cycle;Max_cycle;Signal;HPM_P1;HPM_P2
2022/10/24 00:00:24;;;;;;;1.20;1.20;;;;;;;;;;10447886;28;20214;-75
2022/10/24 00:05:26;;;;;;;1.40;1.40;;;;;;;;;;10464254;28;20194;-76
2022/10/24 00:10:27;;;;;;;0.95;0.95;;;;;;;;;;10464592;28;20226;-75
2022/10/24 00:15:28;;;;;;;3.42;1.40;;;;;;;;;;10463659;28;20213;-75
2022/10/24 00:20:29;;;;;;;0.88;0.88;;;;;;;;;;10460687;28;20194;-75
2022/10/24 00:25:30;;;;;;;2.65;1.13;;;;;;;;;;10460403;28;20619;-76
2022/10/24 00:30:31;;;;;;;1.25;1.20;;;;;;;;;;10454381;28;20681;-75
2022/10/24 00:35:33;;;;;;;4.45;1.95;;;;;;;;;;10458688;28;20214;-76
2022/10/24 00:40:34;;;;;;;4.97;1.25;;;;;;;;;;10458237;28;20204;-73
2022/10/24 00:45:48;;;;;;;3.13;1.33;;;;;;;;;;10457050;28;20217;-73
2022/10/24 00:50:52;;;;;;;0.93;0.93;;;;;;;;;;10457743;28;20191;-73
2022/10/24 00:55:54;;;;;;;1.35;1.35;;;;;;;;;;10457817;28;20218;-74
2022/10/24 01:00:55;;;;;;;1.35;1.25;;;;;;;;;;10455532;28;20650;-74
2022/10/24 01:06:28;;;;;;;2.72;1.00;;;;;;;;;;10457182;28;20201;-74
2022/10/24 01:11:38;;;;;;;2.30;1.10;;;;;;;;;;10442934;28;20229;-74
2022/10/24 01:17:09;;;;;;;2.15;1.58;;;;;;;;;;10456699;28;20264;-75
2022/10/24 01:22:16;;;;;;;1.50;1.50;;;;;;;;;;10411435;28;20190;-74
2022/10/24 01:27:18;;;;;;;1.50;1.50;;;;;;;;;;10455138;28;20187;-74
2022/10/24 01:32:22;;;;;;;1.65;1.55;;;;;;;;;;10449883;28;20217;-74
2022/10/24 01:37:27;;;;;;;2.13;1.75;;;;;;;;;;10455124;28;20228;-74
2022/10/24 01:42:30;;;;;;;2.65;1.45;;;;;;;;;;10457316;28;20977;-74
2022/10/24 01:47:37;;;;;;;1.80;1.70;;;;;;;;;;10451829;28;20206;-73
2022/10/24 01:52:39;;;;;;;2.35;2.03;;;;;;;;;;10456345;28;20658;-74
2022/10/24 01:57:41;;;;;;;2.50;2.40;;;;;;;;;;10458085;28;20780;-74
2022/10/24 02:02:44;;;;;;;4.82;2.10;;;;;;;;;;10455618;28;20217;-74
2022/10/24 02:07:46;;;;;;;2.17;2.08;;;;;;;;;;10474935;28;20181;-74
2022/10/24 02:12:57;;;;;;;1.85;1.85;;;;;;;;;;10460112;28;20294;-75
2022/10/24 02:17:58;;;;;;;3.30;2.20;;;;;;;;;;10464030;28;20257;-75
2022/10/24 02:23:19;;;;;;;3.55;1.90;;;;;;;;;;10465341;28;20201;-74
2022/10/24 02:28:24;;;;;;;2.47;2.17;;;;;;;;;;10457509;28;20187;-74
2022/10/24 02:33:27;;;;;;;2.25;1.92;;;;;;;;;;10461322;28;20226;-75
2022/10/24 02:38:31;;;;;;;2.67;2.00;;;;;;;;;;10462206;28;20228;-74
2022/10/24 02:43:32;;;;;;;2.20;2.10;;;;;;;;;;10461423;28;21039;-73
2022/10/24 02:48:35;;;;;;;2.47;2.38;;;;;;;;;;10465104;28;20190;-74
2022/10/24 02:53:36;;;;;;;2.45;2.25;;;;;;;;;;10464700;28;20202;-74
2022/10/24 02:58:37;;;;;;;2.47;1.88;;;;;;;;;;10462125;28;20658;-74
2022/10/24 03:03:39;;;;;;;1.83;1.80;;;;;;;;;;10463764;28;20681;-74
2022/10/24 03:08:40;;;;;;;2.30;2.20;;;;;;;;;;10462251;28;20205;-74
2022/10/24 03:13:41;;;;;;;1.90;1.67;;;;;;;;;;10457622;28;20614;-74
2022/10/24 03:18:42;;;;;;;1.67;1.67;;;;;;;;;;10460685;28;20190;-74
2022/10/24 03:23:43;;;;;;;2.47;2.38;;;;;;;;;;10458910;28;20268;-74
2022/10/24 03:28:44;;;;;;;2.03;1.88;;;;;;;;;;10459500;28;20205;-74
2022/10/24 03:33:45;;;;;;;5.03;2.40;;;;;;;;;;10462764;28;20322;-74
2022/10/24 03:38:46;;;;;;;4.05;1.80;;;;;;;;;;10460548;28;20316;-74
2022/10/24 03:43:47;;;;;;;2.25;1.70;;;;;;;;;;10454561;28;20226;-74
2022/10/24 03:48:48;;;;;;;2.78;1.80;;;;;;;;;;10457775;28;20704;-75
2022/10/24 03:53:50;;;;;;;1.70;1.60;;;;;;;;;;10457006;28;20735;-74
2022/10/24 03:58:51;;;;;;;6.15;2.10;;;;;;;;;;10456363;28;20717;-75
2022/10/24 04:03:52;;;;;;;5.22;2.17;;;;;;;;;;10453027;28;20223;-73
2022/10/24 04:08:53;;;;;;;3.45;1.90;;;;;;;;;;10454759;28;20556;-75
2022/10/24 04:13:54;;;;;;;1.52;1.45;;;;;;;;;;10454212;28;21237;-74
2022/10/24 04:18:55;;;;;;;1.70;1.40;;;;;;;;;;10431535;28;20285;-74
2022/10/24 04:23:56;;;;;;;3.25;1.45;;;;;;;;;;10453559;28;20206;-75
2022/10/24 04:28:57;;;;;;;2.05;1.80;;;;;;;;;;10446965;28;20182;-75
2022/10/24 04:33:58;;;;;;;1.33;1.20;;;;;;;;;;10458151;28;20285;-75
2022/10/24 04:38:59;;;;;;;1.92;1.15;;;;;;;;;;10453691;28;20281;-74
2022/10/24 04:44:01;;;;;;;2.85;1.20;;;;;;;;;;10452663;28;20236;-74
2022/10/24 04:49:02;;;;;;;4.40;1.48;;;;;;;;;;10451835;28;20190;-74
2022/10/24 04:54:03;;;;;;;1.15;1.08;;;;;;;;;;10451384;28;20210;-75
2022/10/24 04:59:04;;;;;;;3.47;1.38;;;;;;;;;;10461789;28;21993;-74
2022/10/24 05:04:07;;;;;;;1.48;1.10;;;;;;;;;;10458909;28;21002;-74
2022/10/24 05:09:08;;;;;;;1.25;1.20;;;;;;;;;;10455696;28;20591;-74
2022/10/24 05:14:09;;;;;;;4.05;1.10;;;;;;;;;;10457371;28;20341;-75
2022/10/24 05:19:10;;;;;;;2.20;1.70;;;;;;;;;;10454820;28;20193;-75
2022/10/24 05:24:12;;;;;;;2.70;1.60;;;;;;;;;;10450668;28;20182;-75
2022/10/24 05:29:13;;;;;;;1.33;1.33;;;;;;;;;;10450292;28;20749;-75
2022/10/24 05:34:14;;;;;;;1.20;1.20;;;;;;;;;;10452632;28;20237;-75
2022/10/24 05:39:16;;;;;;;4.60;1.67;;;;;;;;;;10449983;28;20559;-76
2022/10/24 05:44:17;;;;;;;4.15;1.67;;;;;;;;;;10452311;28;20238;-75
2022/10/24 05:49:18;;;;;;;2.90;1.23;;;;;;;;;;10451089;28;20216;-75
2022/10/24 05:54:19;;;;;;;1.92;1.40;;;;;;;;;;10454361;28;20248;-76
2022/10/24 05:59:20;;;;;;;2.38;1.15;;;;;;;;;;10449517;28;20759;-76
2022/10/24 06:04:21;;;;;;;3.42;1.25;;;;;;;;;;10449542;28;20214;-74
2022/10/24 06:09:22;;;;;;;5.88;1.83;;;;;;;;;;10452082;28;20274;-75
2022/10/24 06:14:23;;;;;;;2.00;1.13;;;;;;;;;;10448517;28;20295;-75
2022/10/24 06:19:25;;;;;;;7.63;1.77;;;;;;;;;;10450952;28;20303;-75
2022/10/24 06:24:26;;;;;;;4.63;1.30;;;;;;;;;;10457015;28;20570;-74
2022/10/24 06:29:27;;;;;;;6.05;1.42;;;;;;;;;;10449348;28;20193;-75
2022/10/24 06:34:28;;;;;;;3.70;1.65;;;;;;;;;;10432988;28;20226;-75
2022/10/24 06:39:29;;;;;;;1.75;1.40;;;;;;;;;;10451292;28;20191;-76
2022/10/24 06:44:30;;;;;;;5.50;1.33;;;;;;;;;;10449094;28;20237;-75
2022/10/24 06:49:31;;;;;;;3.22;1.58;;;;;;;;;;10445911;28;20195;-76
2022/10/24 06:54:34;;;;;;;1.55;1.23;;;;;;;;;;10449800;28;20211;-75
2022/10/24 06:59:35;;;;;;;2.95;1.20;;;;;;;;;;10453397;28;20311;-73
2022/10/24 07:04:36;;;;;;;6.97;1.27;;;;;;;;;;10451189;28;20728;-74
2022/10/24 07:09:37;;;;;;;1.92;1.27;;;;;;;;;;10445953;28;20198;-75
2022/10/24 07:14:38;;;;;;;5.35;1.10;;;;;;;;;;10450169;28;20238;-75
2022/10/24 07:19:39;;;;;;;4.70;1.58;;;;;;;;;;10454157;28;20179;-75
2022/10/24 07:24:41;;;;;;;4.82;1.30;;;;;;;;;;10456005;28;21107;-75
2022/10/24 07:29:42;;;;;;;3.45;1.25;;;;;;;;;;10460754;28;20332;-74
2022/10/24 07:34:43;;;;;;;5.85;1.17;;;;;;;;;;10457659;28;20366;-74
2022/10/24 07:39:45;;;;;;;2.17;1.00;;;;;;;;;;10455902;28;20192;-75
2022/10/24 07:44:46;;;;;;;0.90;0.70;;;;;;;;;;10456163;28;20378;-75
2022/10/24 07:49:47;;;;;;;2.53;1.25;;;;;;;;;;10440717;28;20186;-74
2022/10/24 07:54:48;;;;;;;2.58;0.90;;;;;;;;;;10429182;28;20214;-75
2022/10/24 07:59:50;;;;;;;7.57;1.70;;;;;;;;;;10450666;28;20186;-74
2022/10/24 08:04:51;;;;;;;2.33;1.08;;;;;;;;;;10449612;28;20581;-75
2022/10/24 08:09:52;;;;;;;6.18;1.05;;;;;;;;;;10437669;28;20683;-75
2022/10/24 08:14:54;;;;;;;1.92;0.90;;;;;;;;;;10454874;28;20219;-75
2022/10/24 08:19:55;;;;;;;1.42;0.95;;;;;;;;;;10452817;28;20249;-74
2022/10/24 08:25:17;;;;;;;4.57;1.15;;;;;;;;;;10444645;28;20253;-73
2022/10/24 08:30:19;;;;;;;4.25;0.90;;;;;;;;;;10439362;28;20252;-73
2022/10/24 08:35:20;;;;;;;6.35;1.10;;;;;;;;;;10456265;28;20214;-73
2022/10/24 08:40:22;;;;;;;4.15;0.80;;;;;;;;;;10450974;28;20568;-72
2022/10/24 08:45:34;;;;;;;3.35;1.20;;;;;;;;;;10452589;28;20233;-74
2022/10/24 08:50:37;;;;;;;1.70;0.82;;;;;;;;;;10455237;28;20191;-74
2022/10/24 08:55:39;;;;;;;1.73;0.80;;;;;;;;;;10454435;28;20225;-75
2022/10/24 09:00:42;;;;;;;8.95;1.38;;;;;;;;;;10438675;28;20296;-73
2022/10/24 09:05:46;;;;;;;3.30;1.10;;;;;;;;;;10450042;28;20191;-73
2022/10/24 09:10:56;;;;;;;2.80;1.00;;;;;;;;;;10451476;28;20793;-72
2022/10/24 09:15:58;;;;;;;3.38;1.45;;;;;;;;;;10457904;28;20642;-72
2022/10/24 09:21:00;;;;;;;2.95;0.90;;;;;;;;;;10458462;28;21241;-73
2022/10/24 09:26:03;;;;;;;1.35;1.23;;;;;;;;;;10455508;28;20273;-73
2022/10/24 09:31:12;;;;;;;3.22;0.90;;;;;;;;;;10454662;28;20230;-73
2022/10/24 09:36:16;;;;;;;4.35;1.17;;;;;;;;;;10450874;28;20887;-74
2022/10/24 09:41:28;;;;;;;3.80;1.23;;;;;;;;;;10451591;28;20288;-73
2022/10/24 09:46:38;;;;;;;5.47;1.13;;;;;;;;;;10453373;28;20300;-73
2022/10/24 09:51:46;;;;;;;3.90;0.90;;;;;;;;;;10457554;28;20197;-72
2022/10/24 09:56:55;;;;;;;2.55;1.10;;;;;;;;;;10455018;28;20332;-73
2022/10/24 10:02:20;;;;;;;7.18;1.00;;;;;;;;;;10463014;28;20238;-80
2022/10/24 10:07:25;;;;;;;6.32;1.08;;;;;;;;;;10455520;28;20208;-73
2022/10/24 10:12:34;;;;;;;3.83;0.90;;;;;;;;;;10454701;28;20218;-76
2022/10/24 10:17:36;;;;;;;5.90;0.85;;;;;;;;;;10459275;28;20236;-78
2022/10/24 10:22:37;;;;;;;6.22;1.10;;;;;;;;;;10454788;28;20179;-74
2022/10/24 10:27:40;;;;;;;3.92;1.05;;;;;;;;;;10460161;28;20277;-75
2022/10/24 10:32:52;;;;;;;1.00;0.77;;;;;;;;;;10455487;28;20221;-75
2022/10/24 10:38:13;;;;;;;3.33;0.70;;;;;;;;;;10464912;28;20735;-75
2022/10/24 10:43:23;;;;;;;4.07;0.70;;;;;;;;;;10455903;28;20261;-75
2022/10/24 10:48:28;;;;;;;3.85;0.82;;;;;;;;;;10461159;28;20187;-74
2022/10/24 10:53:47;;;;;;;0.80;0.70;;;;;;;;;;10458865;28;20223;-74
2022/10/24 10:58:55;;;;;;;3.55;0.55;;;;;;;;;;10460362;28;21217;-74
2022/10/24 11:03:59;;;;;;;6.75;0.93;;;;;;;;;;10458085;28;20225;-74
2022/10/24 11:09:19;;;;;;;6.22;0.65;;;;;;;;;;10464130;28;20187;-75
2022/10/24 11:14:20;;;;;;;2.47;0.73;;;;;;;;;;10459498;28;20231;-71
2022/10/24 11:19:31;;;;;;;3.47;0.70;;;;;;;;;;10461352;28;20175;-72
2022/10/24 11:24:38;;;;;;;5.10;0.80;;;;;;;;;;10461513;28;20216;-73
2022/10/24 11:29:43;;;;;;;4.60;1.00;;;;;;;;;;10463912;28;20218;-73
2022/10/24 11:34:49;;;;;;;5.13;0.85;;;;;;;;;;10459592;28;20229;-71
2022/10/24 11:39:59;;;;;;;0.82;0.60;;;;;;;;;;10456251;28;20184;-72
2022/10/24 11:45:14;;;;;;;6.03;0.98;;;;;;;;;;10414910;28;1254333;-74
2022/10/24 11:50:15;;;;;;;3.08;0.55;;;;;;;;;;10455134;28;20217;-74
2022/10/24 11:55:23;;;;;;;2.28;0.60;;;;;;;;;;10451731;28;20252;-72
2022/10/24 12:00:27;;;;;;;3.30;0.85;;;;;;;;;;10450850;28;20183;-73
2022/10/24 12:05:47;;;;;;;4.88;0.60;;;;;;;;;;10456887;28;20183;-74
2022/10/24 12:10:54;;;;;;;6.97;0.80;;;;;;;;;;10457705;28;20757;-77
2022/10/24 12:16:17;;;;;;;3.45;0.90;;;;;;;;;;10457725;28;20222;-75
2022/10/24 12:21:19;;;;;;;6.43;0.60;;;;;;;;;;10457963;28;20187;-76
2022/10/24 12:26:25;;;;;;;3.67;0.68;;;;;;;;;;10451627;28;20284;-73
2022/10/24 12:31:31;;;;;;;2.30;0.50;;;;;;;;;;10456642;28;20725;-72
2022/10/24 12:36:50;;;;;;;4.25;0.60;;;;;;;;;;10455443;28;20209;-70
2022/10/24 12:41:54;;;;;;;2.78;0.88;;;;;;;;;;10455370;28;20248;-71
2022/10/24 12:46:55;;;;;;;2.17;0.70;;;;;;;;;;10450960;28;20223;-71
2022/10/24 12:51:57;;;;;;;5.30;0.50;;;;;;;;;;10456287;28;20589;-79
2022/10/24 12:57:01;;;;;;;3.13;0.60;;;;;;;;;;10454903;28;20217;-74
2022/10/24 13:02:08;;;;;;;2.25;0.80;;;;;;;;;;10455685;28;20257;-74
2022/10/24 13:07:22;;;;;;;4.38;0.55;;;;;;;;;;10453391;28;20729;-74
2022/10/24 13:12:33;;;;;;;4.35;0.40;;;;;;;;;;10435131;28;20213;-79
2022/10/24 13:17:42;;;;;;;2.35;0.77;;;;;;;;;;10441158;28;20221;-77
2022/10/24 13:22:44;;;;;;;3.10;0.45;;;;;;;;;;10455477;28;20342;-77
2022/10/24 13:27:45;;;;;;;1.02;0.55;;;;;;;;;;10457321;28;20190;-77
2022/10/24 13:32:46;;;;;;;4.10;0.68;;;;;;;;;;10450168;28;20217;-78
2022/10/24 13:37:49;;;;;;;2.25;0.60;;;;;;;;;;10455129;28;20763;-78
2022/10/24 13:42:53;;;;;;;3.13;0.50;;;;;;;;;;10454997;28;20218;-78
2022/10/24 13:48:02;;;;;;;2.03;0.50;;;;;;;;;;10461940;28;20549;-79
2022/10/24 13:53:12;;;;;;;1.85;0.52;;;;;;;;;;10456772;28;20265;-76
2022/10/24 13:58:21;;;;;;;1.77;0.50;;;;;;;;;;10454854;28;20263;-78
2022/10/24 14:03:24;;;;;;;1.73;0.50;;;;;;;;;;10456835;28;20225;-74
2022/10/24 14:08:28;;;;;;;4.63;0.65;;;;;;;;;;10451721;28;20190;-73
2022/10/24 14:13:30;;;;;;;1.42;0.50;;;;;;;;;;10457554;28;20242;-75
2022/10/24 14:18:32;;;;;;;0.85;0.50;;;;;;;;;;10458916;28;20186;-75
2022/10/24 14:23:38;;;;;;;3.53;0.50;;;;;;;;;;10457461;28;20201;-75
2022/10/24 14:28:44;;;;;;;4.47;0.68;;;;;;;;;;10456389;28;20690;-76
2022/10/24 14:33:50;;;;;;;2.60;0.60;;;;;;;;;;10458059;28;21122;-77
2022/10/24 14:38:54;;;;;;;4.93;0.60;;;;;;;;;;10453898;28;20183;-77
2022/10/24 14:43:57;;;;;;;3.83;0.63;;;;;;;;;;10458542;28;20306;-76
2022/10/24 14:49:19;;;;;;;3.20;0.80;;;;;;;;;;10457037;28;20194;-75
2022/10/24 14:54:29;;;;;;;2.33;0.55;;;;;;;;;;10452502;28;20218;-70
2022/10/24 14:59:34;;;;;;;1.10;0.60;;;;;;;;;;10449523;28;20248;-71
2022/10/24 15:04:39;;;;;;;3.28;0.82;;;;;;;;;;10452660;28;20223;-69
2022/10/24 15:09:53;;;;;;;8.75;0.80;;;;;;;;;;10453314;28;20571;-71
2022/10/24 15:14:55;;;;;;;1.42;0.70;;;;;;;;;;10454535;28;20241;-71
2022/10/24 15:19:58;;;;;;;3.85;1.00;;;;;;;;;;10457764;28;20591;-71
2022/10/24 15:25:00;;;;;;;4.18;0.80;;;;;;;;;;10462280;28;20274;-70
2022/10/24 15:30:01;;;;;;;2.80;0.75;;;;;;;;;;10459036;28;20194;-73
2022/10/24 15:35:02;;;;;;;2.15;0.43;;;;;;;;;;10461717;28;20222;-71
2022/10/24 15:40:05;;;;;;;5.90;0.98;;;;;;;;;;10460005;28;20665;-70
2022/10/24 15:45:12;;;;;;;3.67;0.50;;;;;;;;;;10457566;28;20241;-72
2022/10/24 15:50:17;;;;;;;7.20;0.80;;;;;;;;;;10457216;28;20221;-71
2022/10/24 15:55:20;;;;;;;1.35;0.60;;;;;;;;;;10460893;28;20264;-78
2022/10/24 16:00:22;;;;;;;2.08;1.13;;;;;;;;;;10461585;28;20236;-79
2022/10/24 16:05:43;;;;;;;1.65;0.82;;;;;;;;;;10472788;28;20553;-79
2022/10/24 16:10:45;;;;;;;2.78;1.77;;;;;;;;;;10469649;28;20238;-78
2022/10/24 16:15:46;;;;;;;1.30;1.13;;;;;;;;;;10467721;28;20222;-80
2022/10/24 16:20:47;;;;;;;2.35;2.03;;;;;;;;;;10448879;28;20202;-75
2022/10/24 16:25:49;;;;;;;4.35;1.23;;;;;;;;;;10458959;28;20186;-76
2022/10/24 16:30:50;;;;;;;4.10;2.40;;;;;;;;;;10458659;28;20225;-74
2022/10/24 16:35:51;;;;;;;5.93;3.42;;;;;;;;;;10460792;28;20754;-76
2022/10/24 16:40:52;;;;;;;4.25;2.13;;;;;;;;;;10460832;28;20202;-76
2022/10/24 16:45:57;;;;;;;4.20;3.30;;;;;;;;;;10461099;28;20261;-74
2022/10/24 16:50:59;;;;;;;1.50;1.40;;;;;;;;;;10462258;28;20190;-75
2022/10/24 16:56:00;;;;;;;2.95;0.80;;;;;;;;;;10458471;28;20230;-78
2022/10/24 17:01:05;;;;;;;0.63;0.63;;;;;;;;;;10460689;28;20317;-77
2022/10/24 17:06:06;;;;;;;1.48;0.70;;;;;;;;;;10460289;28;20268;-77
2022/10/24 17:11:10;;;;;;;1.48;0.85;;;;;;;;;;10462379;28;20301;-76
2022/10/24 17:16:11;;;;;;;2.08;1.00;;;;;;;;;;10462340;28;20736;-76
2022/10/24 17:21:13;;;;;;;2.00;0.73;;;;;;;;;;10460508;28;20206;-78
2022/10/24 17:26:14;;;;;;;0.85;0.85;;;;;;;;;;10463830;28;20248;-78
2022/10/24 17:31:15;;;;;;;2.72;1.15;;;;;;;;;;10458243;28;20226;-75
2022/10/24 17:36:23;;;;;;;4.55;0.98;;;;;;;;;;10459424;28;20276;-72
2022/10/24 17:41:30;;;;;;;3.28;0.90;;;;;;;;;;10453844;28;20214;-74
2022/10/24 17:46:32;;;;;;;0.75;0.73;;;;;;;;;;10455356;28;20222;-71
2022/10/24 17:51:36;;;;;;;2.60;1.25;;;;;;;;;;10459595;28;20763;-73
2022/10/24 17:56:37;;;;;;;5.63;0.80;;;;;;;;;;10452679;28;20222;-75
2022/10/24 18:01:38;;;;;;;2.95;0.80;;;;;;;;;;10457171;28;20257;-73
2022/10/24 18:06:39;;;;;;;1.70;0.70;;;;;;;;;;10454507;28;20558;-74
2022/10/24 18:11:42;;;;;;;3.88;1.10;;;;;;;;;;10457203;28;20217;-76
2022/10/24 18:16:43;;;;;;;1.08;0.82;;;;;;;;;;10459991;28;20214;-74
2022/10/24 18:21:45;;;;;;;3.75;1.55;;;;;;;;;;10458434;28;20197;-74
2022/10/24 18:26:46;;;;;;;3.42;1.98;;;;;;;;;;10452551;28;20265;-76
2022/10/24 18:31:47;;;;;;;5.63;1.80;;;;;;;;;;10457455;28;21209;-79
2022/10/24 18:36:48;;;;;;;5.28;2.20;;;;;;;;;;10453358;28;20304;-76
2022/10/24 18:41:55;;;;;;;3.40;1.90;;;;;;;;;;10453894;28;20207;-75
2022/10/24 18:47:00;;;;;;;1.30;0.98;;;;;;;;;;10453470;28;20260;-74
2022/10/24 18:52:05;;;;;;;0.75;0.73;;;;;;;;;;10465489;28;20224;-79
2022/10/24 18:57:26;;;;;;;5.38;1.65;;;;;;;;;;10469772;28;20222;-78
2022/10/24 19:02:34;;;;;;;1.95;0.90;;;;;;;;;;10466374;28;20213;-74
2022/10/24 19:07:35;;;;;;;2.47;0.77;;;;;;;;;;10467331;28;20182;-76
2022/10/24 19:12:37;;;;;;;5.03;0.90;;;;;;;;;;10461884;28;20302;-75
2022/10/24 19:17:38;;;;;;;2.17;0.88;;;;;;;;;;10459795;28;20221;-76
2022/10/24 19:22:39;;;;;;;5.57;1.20;;;;;;;;;;10461170;28;20186;-72
2022/10/24 19:27:40;;;;;;;3.25;1.13;;;;;;;;;;10463002;28;20225;-76
2022/10/24 19:32:41;;;;;;;0.90;0.90;;;;;;;;;;10456086;28;20708;-77
2022/10/24 19:37:43;;;;;;;3.35;1.00;;;;;;;;;;10461492;28;20245;-79
2022/10/24 19:42:44;;;;;;;2.28;0.80;;;;;;;;;;10466181;28;20673;-76
2022/10/24 19:47:46;;;;;;;0.93;0.80;;;;;;;;;;10463172;28;20183;-76
2022/10/24 19:52:47;;;;;;;1.30;0.90;;;;;;;;;;10461631;28;20190;-76
2022/10/24 19:57:48;;;;;;;2.08;0.88;;;;;;;;;;10466476;28;20275;-77
2022/10/24 20:02:49;;;;;;;1.38;0.68;;;;;;;;;;10461613;28;20210;-77
2022/10/24 20:07:50;;;;;;;0.93;0.73;;;;;;;;;;10467959;28;20233;-77
2022/10/24 20:12:51;;;;;;;1.00;1.00;;;;;;;;;;10462434;28;20721;-77
2022/10/24 20:17:52;;;;;;;1.02;1.02;;;;;;;;;;10458340;28;20232;-77
2022/10/24 20:22:53;;;;;;;1.48;0.55;;;;;;;;;;10465170;28;20236;-77
2022/10/24 20:27:54;;;;;;;3.50;0.68;;;;;;;;;;10461524;28;20201;-77
2022/10/24 20:32:56;;;;;;;3.20;0.60;;;;;;;;;;10458403;28;20222;-78
2022/10/24 20:37:57;;;;;;;1.05;0.90;;;;;;;;;;10464868;28;20741;-76
2022/10/24 20:43:00;;;;;;;3.25;0.45;;;;;;;;;;10459045;28;20300;-77
2022/10/24 20:48:02;;;;;;;3.15;0.55;;;;;;;;;;10459044;28;20202;-77
2022/10/24 20:53:03;;;;;;;3.30;0.50;;;;;;;;;;10463590;28;20729;-77
2022/10/24 20:58:04;;;;;;;1.55;0.90;;;;;;;;;;10460243;28;20298;-77
2022/10/24 21:03:06;;;;;;;5.57;0.60;;;;;;;;;;10461615;28;20713;-77
2022/10/24 21:08:07;;;;;;;0.45;0.45;;;;;;;;;;10463152;28;20190;-77
2022/10/24 21:13:08;;;;;;;1.02;0.95;;;;;;;;;;10458987;28;20214;-78
2022/10/24 21:18:09;;;;;;;2.58;0.70;;;;;;;;;;10462165;28;20305;-78
2022/10/24 21:23:11;;;;;;;1.48;0.60;;;;;;;;;;10464243;28;20217;-78
2022/10/24 21:28:12;;;;;;;2.65;0.60;;;;;;;;;;10461974;28;20243;-77
2022/10/24 21:33:13;;;;;;;3.67;0.57;;;;;;;;;;10461924;28;20260;-77
2022/10/24 21:38:14;;;;;;;0.50;0.43;;;;;;;;;;10461806;28;20775;-77
2022/10/24 21:43:15;;;;;;;2.00;0.50;;;;;;;;;;10461768;28;20233;-78
2022/10/24 21:48:16;;;;;;;4.03;0.73;;;;;;;;;;10458649;28;20273;-78
2022/10/24 21:53:17;;;;;;;2.63;0.50;;;;;;;;;;10458240;28;20228;-77
2022/10/24 21:58:18;;;;;;;2.28;0.50;;;;;;;;;;10460125;28;20614;-77
2022/10/24 22:03:19;;;;;;;2.50;0.35;;;;;;;;;;10459182;28;21103;-77
2022/10/24 22:08:21;;;;;;;3.25;0.50;;;;;;;;;;10459741;28;20280;-77
2022/10/24 22:13:23;;;;;;;0.95;0.40;;;;;;;;;;10457462;28;20285;-77
2022/10/24 22:18:25;;;;;;;1.05;0.40;;;;;;;;;;10457583;28;20224;-77
2022/10/24 22:23:26;;;;;;;1.30;0.30;;;;;;;;;;10462844;28;20192;-77
2022/10/24 22:28:27;;;;;;;2.92;0.52;;;;;;;;;;10464042;28;20202;-77
2022/10/24 22:33:29;;;;;;;3.63;0.50;;;;;;;;;;10465659;28;20601;-77
2022/10/24 22:38:30;;;;;;;1.58;0.45;;;;;;;;;;10448270;28;21060;-77
2022/10/24 22:43:31;;;;;;;0.98;0.30;;;;;;;;;;10466142;28;20217;-78
2022/10/24 22:48:34;;;;;;;0.93;0.30;;;;;;;;;;10467280;28;20179;-77
2022/10/24 22:53:35;;;;;;;3.42;0.50;;;;;;;;;;10466236;28;20190;-77
2022/10/24 22:58:37;;;;;;;2.10;0.30;;;;;;;;;;10461889;28;20233;-77
2022/10/24 23:03:38;;;;;;;1.70;0.40;;;;;;;;;;10464619;28;20289;-77
2022/10/24 23:08:40;;;;;;;2.25;0.40;;;;;;;;;;10468533;28;20179;-78
2022/10/24 23:13:42;;;;;;;2.83;0.65;;;;;;;;;;10464537;28;20231;-78
2022/10/24 23:18:43;;;;;;;4.50;0.40;;;;;;;;;;10460831;28;20179;-78
2022/10/24 23:23:44;;;;;;;0.68;0.40;;;;;;;;;;10464714;28;20227;-78
2022/10/24 23:28:49;;;;;;;0.60;0.45;;;;;;;;;;10461940;28;20183;-78
2022/10/24 23:33:50;;;;;;;2.22;0.50;;;;;;;;;;10463407;28;20709;-78
2022/10/24 23:38:51;;;;;;;2.58;0.45;;;;;;;;;;10465654;28;20198;-78
2022/10/24 23:43:52;;;;;;;3.92;0.30;;;;;;;;;;10460472;28;20233;-77
2022/10/24 23:49:07;;;;;;;1.42;0.40;;;;;;;;;;10463150;28;20190;-78
2022/10/24 23:54:10;;;;;;;3.00;0.70;;;;;;;;;;10461497;28;20233;-78
2022/10/24 23:59:11;;;;;;;5.85;0.60;;;;;;;;;;10453786;28;20525;-78
